Time;durP1;ratioP1;P1;durP2;ratioP2;P2;SDS_P1;SDS_P2;PMS_P1;PMS_P2;Temp;Humidity;BMP_temperature;BMP_pressure;BME280_temperature;BME280_humidity;BME280_pressure;Samples;Min_cycle;Max_cycle;Signal;HPM_P1;HPM_P2
2021/12/14 00:01:17;;;;;;;7.47;5.82;;;;;;;;;;5004983;28;20178;-70
2021/12/14 00:03:46;;;;;;;8.38;5.45;;;;;;;;;;5000500;28;20701;-70
2021/12/14 00:06:13;;;;;;;9.18;5.60;;;;;;;;;;5010026;28;20175;-70
2021/12/14 00:08:49;;;;;;;12.40;7.30;;;;;;;;;;5006667;28;20281;-72
2021/12/14 00:14:12;;;;;;;8.88;5.65;;;;;;;;;;5004771;28;20175;-72
2021/12/14 00:16:38;;;;;;;8.80;6.25;;;;;;;;;;5007983;28;20190;-71
2021/12/14 00:19:04;;;;;;;8.83;6.10;;;;;;;;;;5005838;28;20211;-71
2021/12/14 00:21:31;;;;;;;9.20;6.63;;;;;;;;;;4995400;28;20281;-71
2021/12/14 00:24:06;;;;;;;10.30;7.00;;;;;;;;;;5008035;28;20185;-71
2021/12/14 00:26:55;;;;;;;10.45;6.20;;;;;;;;;;5001383;28;20495;-71
2021/12/14 00:29:41;;;;;;;10.40;6.28;;;;;;;;;;5012935;28;20208;-71
2021/12/14 00:32:13;;;;;;;10.30;6.20;;;;;;;;;;4997599;28;20544;-71
2021/12/14 00:34:42;;;;;;;9.77;6.88;;;;;;;;;;5016957;28;20201;-71
2021/12/14 00:37:10;;;;;;;9.10;7.35;;;;;;;;;;4997358;28;20187;-71
2021/12/14 00:39:36;;;;;;;10.67;6.73;;;;;;;;;;5010690;28;20288;-71
2021/12/14 00:42:02;;;;;;;9.93;6.57;;;;;;;;;;4999183;28;20194;-72
2021/12/14 00:44:29;;;;;;;11.02;7.68;;;;;;;;;;5014082;28;20734;-71
2021/12/14 00:46:54;;;;;;;11.32;7.47;;;;;;;;;;4998664;28;20262;-71
2021/12/14 00:49:20;;;;;;;12.00;7.50;;;;;;;;;;5012826;28;20341;-71
2021/12/14 00:51:45;;;;;;;11.55;6.95;;;;;;;;;;4998062;28;20190;-71
2021/12/14 00:54:13;;;;;;;9.30;7.28;;;;;;;;;;5007103;28;20185;-71
2021/12/14 00:56:40;;;;;;;12.32;7.00;;;;;;;;;;4999872;28;20193;-72
2021/12/14 00:59:08;;;;;;;12.57;7.70;;;;;;;;;;5004287;28;20717;-71
2021/12/14 01:01:41;;;;;;;9.93;7.80;;;;;;;;;;4998025;28;20653;-71
2021/12/14 01:04:13;;;;;;;9.80;7.28;;;;;;;;;;5003444;28;20206;-71
2021/12/14 01:06:44;;;;;;;11.20;7.30;;;;;;;;;;5005026;28;20319;-71
2021/12/14 01:09:11;;;;;;;10.35;7.43;;;;;;;;;;4999973;28;20187;-71
2021/12/14 01:11:43;;;;;;;11.25;7.75;;;;;;;;;;5009029;28;20186;-71
2021/12/14 01:14:19;;;;;;;11.50;7.18;;;;;;;;;;4996958;28;20190;-72
2021/12/14 01:16:53;;;;;;;11.30;8.52;;;;;;;;;;5009847;28;20525;-72
2021/12/14 01:19:27;;;;;;;12.57;7.80;;;;;;;;;;4993165;28;20198;-72
2021/12/14 01:27:40;;;;;;;12.52;7.45;;;;;;;;;;5002102;28;20206;-71
2021/12/14 01:30:36;;;;;;;11.17;7.47;;;;;;;;;;4996545;28;20249;-71
2021/12/14 01:33:06;;;;;;;11.88;7.78;;;;;;;;;;4967658;28;20564;-72
2021/12/14 01:35:36;;;;;;;14.85;8.82;;;;;;;;;;4992262;28;20180;-72
2021/12/14 01:38:17;;;;;;;13.10;8.20;;;;;;;;;;5004483;28;20675;-72
2021/12/14 01:40:56;;;;;;;14.03;8.67;;;;;;;;;;5002654;28;20643;-71
2021/12/14 01:43:31;;;;;;;11.73;8.90;;;;;;;;;;5006306;28;20186;-72
2021/12/14 01:46:02;;;;;;;12.90;9.38;;;;;;;;;;4998728;28;20183;-72
2021/12/14 01:48:28;;;;;;;13.52;9.40;;;;;;;;;;5003907;28;20320;-71
2021/12/14 01:50:58;;;;;;;12.63;9.13;;;;;;;;;;4998226;28;20237;-71
2021/12/14 01:53:24;;;;;;;16.20;9.80;;;;;;;;;;5001219;28;20207;-71
2021/12/14 01:55:54;;;;;;;15.57;10.52;;;;;;;;;;4998777;28;20210;-71
2021/12/14 01:58:31;;;;;;;16.38;10.52;;;;;;;;;;5004242;28;20199;-71
2021/12/14 02:01:03;;;;;;;15.73;9.82;;;;;;;;;;5000247;28;20195;-72
2021/12/14 02:03:36;;;;;;;18.53;10.63;;;;;;;;;;5005750;28;20209;-71
2021/12/14 02:06:03;;;;;;;15.63;10.73;;;;;;;;;;4995581;28;20219;-71
2021/12/14 02:08:34;;;;;;;15.07;11.13;;;;;;;;;;5009706;28;20541;-71
2021/12/14 02:11:02;;;;;;;18.30;10.50;;;;;;;;;;4999346;28;20230;-71
2021/12/14 02:13:32;;;;;;;16.70;11.32;;;;;;;;;;5008630;28;20526;-71
2021/12/14 02:16:00;;;;;;;16.15;10.93;;;;;;;;;;4999428;28;20313;-71
2021/12/14 02:18:28;;;;;;;15.40;10.90;;;;;;;;;;5010644;28;20206;-72
2021/12/14 02:20:59;;;;;;;16.20;12.02;;;;;;;;;;5001498;28;20233;-72
2021/12/14 02:23:26;;;;;;;17.27;11.85;;;;;;;;;;5011065;28;20233;-71
2021/12/14 02:25:53;;;;;;;16.27;11.53;;;;;;;;;;5003140;28;20248;-71
2021/12/14 02:28:20;;;;;;;17.77;12.15;;;;;;;;;;5016519;28;20179;-72
2021/12/14 02:30:48;;;;;;;17.30;11.75;;;;;;;;;;5009305;28;20199;-72
2021/12/14 02:33:21;;;;;;;17.70;12.03;;;;;;;;;;5002385;28;20229;-72
2021/12/14 02:35:49;;;;;;;20.50;12.60;;;;;;;;;;5008818;28;20415;-72
2021/12/14 02:38:17;;;;;;;18.17;12.75;;;;;;;;;;5001633;28;20220;-71
2021/12/14 02:41:01;;;;;;;18.98;12.48;;;;;;;;;;5015480;28;20232;-71
2021/12/14 02:43:38;;;;;;;21.80;13.63;;;;;;;;;;4998675;28;20191;-71
2021/12/14 02:46:14;;;;;;;20.77;13.90;;;;;;;;;;5009433;28;20189;-72
2021/12/14 02:48:43;;;;;;;20.60;13.13;;;;;;;;;;5000504;28;20216;-72
2021/12/14 02:51:28;;;;;;;18.57;13.17;;;;;;;;;;5009844;28;20195;-72
2021/12/14 02:54:04;;;;;;;20.90;13.45;;;;;;;;;;4995946;28;20497;-72
2021/12/14 02:56:32;;;;;;;20.47;13.37;;;;;;;;;;5009675;28;20244;-71
2021/12/14 02:59:02;;;;;;;20.67;14.07;;;;;;;;;;4998741;28;20319;-71
2021/12/14 03:01:29;;;;;;;22.75;14.40;;;;;;;;;;5001776;28;20286;-72
2021/12/14 03:04:00;;;;;;;24.90;15.17;;;;;;;;;;4999367;28;20253;-71
2021/12/14 03:06:27;;;;;;;20.53;14.60;;;;;;;;;;5003613;28;20221;-72
2021/12/14 03:09:08;;;;;;;25.03;15.37;;;;;;;;;;5000391;28;20183;-71
2021/12/14 03:11:36;;;;;;;23.20;14.53;;;;;;;;;;5009147;28;20183;-71
2021/12/14 03:14:01;;;;;;;22.80;15.20;;;;;;;;;;4999465;28;20289;-71
2021/12/14 03:16:32;;;;;;;27.60;16.17;;;;;;;;;;5009245;28;20701;-71
2021/12/14 03:18:59;;;;;;;26.33;17.00;;;;;;;;;;5002368;28;20742;-71
2021/12/14 03:21:29;;;;;;;28.20;17.30;;;;;;;;;;5009919;28;20255;-72
2021/12/14 03:24:00;;;;;;;27.20;16.53;;;;;;;;;;5010259;28;20181;-71
2021/12/14 03:26:29;;;;;;;25.23;17.07;;;;;;;;;;5005225;28;20246;-71
2021/12/14 03:28:58;;;;;;;27.40;17.67;;;;;;;;;;5004978;28;20179;-71
2021/12/14 03:31:25;;;;;;;26.57;17.40;;;;;;;;;;5004817;28;20249;-71
2021/12/14 03:33:55;;;;;;;24.13;16.70;;;;;;;;;;5006785;28;20586;-72
2021/12/14 03:36:47;;;;;;;27.13;18.03;;;;;;;;;;4998206;28;20307;-71
2021/12/14 03:39:16;;;;;;;32.37;18.17;;;;;;;;;;4984199;28;20219;-71
2021/12/14 03:41:52;;;;;;;27.47;16.83;;;;;;;;;;4999156;28;20692;-71
2021/12/14 03:44:34;;;;;;;25.80;18.27;;;;;;;;;;5008207;28;20178;-72
2021/12/14 03:47:05;;;;;;;25.07;18.33;;;;;;;;;;5014749;28;20729;-71
2021/12/14 03:49:36;;;;;;;26.87;18.47;;;;;;;;;;5005105;28;20219;-71
2021/12/14 03:52:07;;;;;;;27.40;18.27;;;;;;;;;;5011934;28;20190;-71
2021/12/14 03:54:33;;;;;;;29.50;18.40;;;;;;;;;;5006977;28;20308;-71
2021/12/14 03:56:59;;;;;;;27.10;18.73;;;;;;;;;;5000143;28;20393;-71
2021/12/14 03:59:28;;;;;;;30.47;18.47;;;;;;;;;;5006184;28;20274;-71
2021/12/14 04:01:55;;;;;;;29.48;18.63;;;;;;;;;;5005654;28;20554;-72
2021/12/14 04:05:03;;;;;;;32.78;19.02;;;;;;;;;;5009806;28;20484;-71
2021/12/14 04:07:30;;;;;;;29.27;18.25;;;;;;;;;;4958946;28;20316;-71
2021/12/14 04:09:56;;;;;;;26.83;18.27;;;;;;;;;;5002609;28;20194;-71
2021/12/14 04:12:22;;;;;;;28.50;17.55;;;;;;;;;;4999733;28;20194;-71
2021/12/14 04:14:51;;;;;;;27.30;18.45;;;;;;;;;;5012094;28;20615;-71
2021/12/14 04:17:18;;;;;;;30.27;18.77;;;;;;;;;;5000952;28;20195;-71
2021/12/14 04:19:44;;;;;;;27.40;18.63;;;;;;;;;;5014533;28;20223;-71
2021/12/14 04:22:13;;;;;;;27.38;17.75;;;;;;;;;;5010485;28;20190;-71
2021/12/14 04:24:40;;;;;;;29.20;18.33;;;;;;;;;;5007141;28;20201;-71
2021/12/14 04:27:15;;;;;;;26.53;17.80;;;;;;;;;;5000440;28;20262;-71
2021/12/14 04:29:41;;;;;;;27.00;17.53;;;;;;;;;;5028703;28;20210;-71
2021/12/14 04:32:10;;;;;;;27.13;18.40;;;;;;;;;;4996064;28;20167;-71
2021/12/14 04:34:36;;;;;;;31.02;18.42;;;;;;;;;;5012548;28;21573;-71
2021/12/14 04:37:02;;;;;;;26.35;17.35;;;;;;;;;;5011089;28;20277;-71
2021/12/14 04:39:35;;;;;;;25.98;16.65;;;;;;;;;;5001657;28;20209;-71
2021/12/14 04:53:10;;;;;;;31.50;19.53;;;;;;;;;;5005348;28;20189;-72
2021/12/14 04:55:36;;;;;;;29.37;18.93;;;;;;;;;;5004980;28;20206;-71
2021/12/14 04:58:02;;;;;;;27.90;18.57;;;;;;;;;;5008824;28;20646;-72
2021/12/14 05:00:38;;;;;;;30.93;20.53;;;;;;;;;;4996601;28;20191;-71
2021/12/14 05:03:13;;;;;;;31.33;19.70;;;;;;;;;;5003794;28;20658;-71
2021/12/14 05:05:51;;;;;;;30.53;18.90;;;;;;;;;;5001849;28;20284;-71
2021/12/14 05:10:57;;;;;;;29.80;19.60;;;;;;;;;;4995537;28;20198;-72
2021/12/14 05:13:33;;;;;;;30.07;19.73;;;;;;;;;;5006219;28;20251;-71
2021/12/14 05:15:58;;;;;;;29.40;19.73;;;;;;;;;;5000400;28;20190;-71
2021/12/14 05:18:24;;;;;;;32.40;19.87;;;;;;;;;;5009946;28;20764;-71
2021/12/14 05:20:51;;;;;;;34.17;20.53;;;;;;;;;;4995657;28;20733;-72
2021/12/14 05:23:23;;;;;;;32.43;20.70;;;;;;;;;;5005766;28;20379;-72
2021/12/14 05:25:49;;;;;;;32.20;20.90;;;;;;;;;;5001257;28;20191;-72
2021/12/14 05:28:16;;;;;;;34.37;21.33;;;;;;;;;;5003667;28;20643;-72
2021/12/14 05:30:44;;;;;;;32.57;21.13;;;;;;;;;;4994608;28;20183;-71
2021/12/14 05:33:22;;;;;;;33.40;21.97;;;;;;;;;;5004004;28;20179;-72
2021/12/14 05:35:51;;;;;;;35.93;22.63;;;;;;;;;;4998711;28;20186;-72
2021/12/14 05:38:22;;;;;;;37.20;21.93;;;;;;;;;;5003281;28;20215;-72
2021/12/14 05:43:19;;;;;;;36.93;22.73;;;;;;;;;;5001251;28;20199;-71
2021/12/14 05:45:49;;;;;;;38.10;23.50;;;;;;;;;;5009039;28;20487;-72
2021/12/14 05:48:23;;;;;;;39.28;23.17;;;;;;;;;;4998368;28;20298;-71
2021/12/14 05:50:52;;;;;;;36.43;23.83;;;;;;;;;;5015248;28;20202;-71
2021/12/14 05:53:21;;;;;;;36.63;22.73;;;;;;;;;;5002096;28;20190;-72
2021/12/14 05:55:47;;;;;;;37.40;23.50;;;;;;;;;;5011888;28;20245;-72
2021/12/14 05:58:16;;;;;;;36.88;23.20;;;;;;;;;;5007946;28;20234;-72
2021/12/14 06:00:45;;;;;;;36.67;23.17;;;;;;;;;;5007428;28;20195;-72
2021/12/14 06:03:27;;;;;;;36.20;23.60;;;;;;;;;;5003405;28;20235;-71
2021/12/14 06:05:54;;;;;;;37.42;24.63;;;;;;;;;;5005704;28;20183;-71
2021/12/14 06:08:23;;;;;;;42.55;24.77;;;;;;;;;;4999389;28;20190;-70
2021/12/14 06:10:48;;;;;;;41.28;25.05;;;;;;;;;;5005148;28;20815;-71
2021/12/14 06:13:17;;;;;;;36.97;23.77;;;;;;;;;;5000034;28;20210;-71
2021/12/14 06:15:42;;;;;;;42.03;25.57;;;;;;;;;;5008090;28;20704;-70
2021/12/14 06:18:08;;;;;;;40.90;24.38;;;;;;;;;;5005723;28;20206;-70
2021/12/14 06:20:33;;;;;;;39.07;25.67;;;;;;;;;;5011533;28;20296;-70
2021/12/14 06:22:59;;;;;;;42.35;25.08;;;;;;;;;;5008680;28;20194;-70
2021/12/14 06:25:27;;;;;;;39.00;23.95;;;;;;;;;;5012346;28;20186;-71
2021/12/14 06:27:57;;;;;;;43.40;25.10;;;;;;;;;;5019109;28;20662;-71
2021/12/14 06:30:26;;;;;;;42.27;25.00;;;;;;;;;;5001729;28;20197;-71
2021/12/14 06:32:56;;;;;;;43.28;25.83;;;;;;;;;;5013904;28;20244;-71
2021/12/14 06:35:29;;;;;;;40.38;24.77;;;;;;;;;;5002801;28;20249;-71
2021/12/14 06:40:59;;;;;;;40.65;25.17;;;;;;;;;;5007484;28;20563;-71
2021/12/14 06:43:40;;;;;;;43.63;26.15;;;;;;;;;;5009010;28;20190;-71
2021/12/14 06:46:11;;;;;;;43.70;26.60;;;;;;;;;;5001791;28;20202;-71
2021/12/14 06:48:48;;;;;;;41.45;25.60;;;;;;;;;;5010834;28;20194;-71
2021/12/14 06:51:24;;;;;;;43.28;25.52;;;;;;;;;;5009881;28;20220;-71
2021/12/14 06:53:53;;;;;;;46.95;26.30;;;;;;;;;;5013610;28;20221;-70
2021/12/14 06:56:23;;;;;;;43.00;26.52;;;;;;;;;;5004542;28;20284;-70
2021/12/14 06:58:58;;;;;;;41.58;26.00;;;;;;;;;;5020490;28;20225;-71
2021/12/14 07:01:27;;;;;;;45.72;26.08;;;;;;;;;;5002629;28;20842;-70
2021/12/14 07:03:56;;;;;;;42.95;25.17;;;;;;;;;;5015402;28;20191;-71
2021/12/14 07:06:29;;;;;;;40.63;25.77;;;;;;;;;;5000161;28;20203;-70
2021/12/14 07:09:03;;;;;;;46.23;26.70;;;;;;;;;;5009940;28;20194;-70
2021/12/14 07:11:29;;;;;;;43.83;25.37;;;;;;;;;;5001355;28;20241;-71
2021/12/14 07:13:57;;;;;;;45.40;26.95;;;;;;;;;;5011731;28;20183;-71
2021/12/14 07:16:31;;;;;;;45.42;26.40;;;;;;;;;;5001322;28;20198;-70
2021/12/14 07:18:59;;;;;;;42.10;25.92;;;;;;;;;;5016751;28;20209;-71
2021/12/14 07:21:42;;;;;;;45.22;26.70;;;;;;;;;;5001388;28;20250;-71
2021/12/14 07:24:23;;;;;;;41.55;25.58;;;;;;;;;;5000953;28;20214;-70
2021/12/14 07:26:49;;;;;;;43.40;26.10;;;;;;;;;;4999630;28;20198;-70
2021/12/14 07:29:24;;;;;;;45.40;26.58;;;;;;;;;;5015338;28;20369;-70
2021/12/14 07:31:49;;;;;;;43.03;26.00;;;;;;;;;;4999029;28;20267;-70
2021/12/14 07:34:15;;;;;;;49.47;28.83;;;;;;;;;;5008649;28;20187;-71
2021/12/14 07:36:41;;;;;;;46.83;28.00;;;;;;;;;;4999956;28;20321;-70
2021/12/14 07:39:10;;;;;;;46.67;27.23;;;;;;;;;;5011032;28;20686;-71
2021/12/14 07:41:42;;;;;;;43.65;26.15;;;;;;;;;;5001223;28;20827;-71
2021/12/14 07:44:16;;;;;;;48.05;28.85;;;;;;;;;;5008235;28;20188;-72
2021/12/14 07:46:48;;;;;;;47.57;27.20;;;;;;;;;;5017805;28;20217;-71
2021/12/14 07:49:27;;;;;;;46.40;27.77;;;;;;;;;;5003939;28;20190;-71
2021/12/14 07:52:11;;;;;;;49.23;27.67;;;;;;;;;;5019034;28;20247;-71
2021/12/14 07:54:44;;;;;;;46.80;28.20;;;;;;;;;;5006740;28;20226;-71
2021/12/14 07:57:11;;;;;;;44.63;27.48;;;;;;;;;;5011406;28;20237;-71
2021/12/14 07:59:41;;;;;;;47.10;28.67;;;;;;;;;;4998800;28;20246;-72
2021/12/14 08:02:15;;;;;;;48.55;27.55;;;;;;;;;;5002885;28;20190;-71
2021/12/14 08:04:44;;;;;;;50.13;28.33;;;;;;;;;;4999452;28;20201;-71
2021/12/14 08:07:31;;;;;;;47.55;29.15;;;;;;;;;;5011770;28;20187;-70
2021/12/14 08:10:23;;;;;;;48.38;27.95;;;;;;;;;;5000972;28;20197;-70
2021/12/14 08:12:56;;;;;;;46.17;27.52;;;;;;;;;;5009444;28;20191;-71
2021/12/14 08:15:35;;;;;;;50.40;28.83;;;;;;;;;;5002948;28;20444;-71
2021/12/14 08:18:16;;;;;;;47.80;27.87;;;;;;;;;;5005952;28;20198;-71
2021/12/14 08:20:48;;;;;;;50.63;28.87;;;;;;;;;;5006087;28;20288;-71
2021/12/14 08:23:23;;;;;;;52.80;29.00;;;;;;;;;;5010969;28;20182;-71
2021/12/14 08:25:50;;;;;;;48.40;28.53;;;;;;;;;;5000370;28;20303;-70
2021/12/14 08:28:18;;;;;;;47.13;29.02;;;;;;;;;;5004051;28;20190;-71
2021/12/14 08:31:00;;;;;;;46.67;28.70;;;;;;;;;;4993584;28;20194;-71
2021/12/14 08:33:27;;;;;;;46.63;28.27;;;;;;;;;;5006796;28;20533;-71
2021/12/14 08:35:57;;;;;;;48.33;29.63;;;;;;;;;;4999674;28;20280;-71
2021/12/14 08:38:23;;;;;;;48.58;29.38;;;;;;;;;;5009073;28;20289;-71
2021/12/14 08:40:57;;;;;;;45.95;28.15;;;;;;;;;;5004475;28;20281;-72
2021/12/14 08:43:30;;;;;;;44.90;27.00;;;;;;;;;;5015341;28;20517;-71
2021/12/14 08:46:09;;;;;;;47.30;28.08;;;;;;;;;;5000449;28;20435;-71
2021/12/14 08:48:37;;;;;;;47.60;27.57;;;;;;;;;;5009017;28;20198;-71
2021/12/14 08:51:40;;;;;;;46.35;26.60;;;;;;;;;;5004003;28;20614;-71
2021/12/14 08:54:16;;;;;;;47.13;27.88;;;;;;;;;;5006666;28;20210;-72
2021/12/14 08:56:51;;;;;;;47.38;27.65;;;;;;;;;;4999547;28;20266;-72
2021/12/14 08:59:17;;;;;;;44.15;25.65;;;;;;;;;;5011431;28;20214;-72
2021/12/14 09:01:44;;;;;;;44.30;26.65;;;;;;;;;;5008147;28;20309;-72
2021/12/14 09:04:17;;;;;;;45.42;27.77;;;;;;;;;;5008845;28;20729;-72
2021/12/14 09:06:46;;;;;;;43.88;26.20;;;;;;;;;;5000266;28;20226;-71
2021/12/14 09:09:15;;;;;;;43.33;26.40;;;;;;;;;;5005038;28;20222;-71
2021/12/14 09:11:44;;;;;;;41.88;26.30;;;;;;;;;;5001608;28;20191;-72
2021/12/14 09:14:13;;;;;;;47.65;27.75;;;;;;;;;;5005343;28;20209;-71
2021/12/14 09:16:43;;;;;;;43.33;26.65;;;;;;;;;;5008151;28;20229;-71
2021/12/14 09:19:29;;;;;;;43.67;26.95;;;;;;;;;;5002602;28;20220;-71
2021/12/14 09:21:58;;;;;;;45.85;27.88;;;;;;;;;;4995292;28;20256;-70
2021/12/14 09:24:27;;;;;;;42.90;25.67;;;;;;;;;;5007373;28;20201;-70
2021/12/14 09:26:56;;;;;;;47.72;26.63;;;;;;;;;;5000083;28;20183;-70
2021/12/14 09:29:24;;;;;;;43.00;25.73;;;;;;;;;;5016161;28;20182;-70
2021/12/14 09:31:51;;;;;;;42.53;26.63;;;;;;;;;;5011631;28;20545;-70
2021/12/14 09:34:22;;;;;;;42.83;26.23;;;;;;;;;;4998562;28;20551;-72
2021/12/14 09:36:50;;;;;;;39.75;25.15;;;;;;;;;;5007956;28;20186;-70
2021/12/14 09:39:20;;;;;;;43.70;26.58;;;;;;;;;;5001328;28;20197;-71
2021/12/14 09:41:50;;;;;;;41.08;25.65;;;;;;;;;;5006833;28;20618;-71
2021/12/14 09:44:20;;;;;;;44.20;25.20;;;;;;;;;;4997738;28;20544;-70
2021/12/14 09:46:46;;;;;;;40.63;24.60;;;;;;;;;;5005330;28;20187;-71
2021/12/14 09:49:13;;;;;;;40.78;23.75;;;;;;;;;;5002046;28;20183;-71
2021/12/14 09:51:46;;;;;;;39.95;24.00;;;;;;;;;;5008316;28;20225;-70
2021/12/14 09:54:17;;;;;;;42.20;25.13;;;;;;;;;;5001130;28;20198;-70
2021/12/14 09:56:49;;;;;;;39.70;24.15;;;;;;;;;;5007348;28;20194;-70
2021/12/14 09:59:16;;;;;;;41.03;25.15;;;;;;;;;;4996441;28;20287;-70
2021/12/14 10:01:52;;;;;;;41.72;24.13;;;;;;;;;;5007443;28;20189;-70
2021/12/14 10:04:30;;;;;;;42.97;24.98;;;;;;;;;;4997825;28;20264;-71
2021/12/14 10:06:58;;;;;;;42.05;24.17;;;;;;;;;;5008600;28;20205;-71
2021/12/14 10:09:27;;;;;;;40.30;24.23;;;;;;;;;;4999717;28;20245;-71
2021/12/14 10:12:14;;;;;;;39.95;24.60;;;;;;;;;;5012337;28;20190;-71
2021/12/14 10:14:41;;;;;;;39.47;24.38;;;;;;;;;;5003437;28;20194;-71
2021/12/14 10:17:10;;;;;;;40.83;24.65;;;;;;;;;;5015231;28;20273;-71
2021/12/14 10:19:38;;;;;;;44.58;25.70;;;;;;;;;;4997774;28;26837;-71
2021/12/14 10:22:15;;;;;;;41.05;24.27;;;;;;;;;;5010125;28;20577;-71
2021/12/14 10:24:40;;;;;;;40.20;24.70;;;;;;;;;;4998654;28;20190;-71
2021/12/14 10:27:13;;;;;;;40.78;24.90;;;;;;;;;;5007919;28;20195;-71
2021/12/14 10:29:40;;;;;;;42.00;24.42;;;;;;;;;;5004548;28;20187;-70
2021/12/14 10:32:10;;;;;;;42.40;25.15;;;;;;;;;;5010217;28;20229;-70
2021/12/14 10:34:41;;;;;;;39.92;24.67;;;;;;;;;;5012212;28;20555;-70
2021/12/14 10:37:19;;;;;;;49.20;25.75;;;;;;;;;;5003507;28;20650;-71
2021/12/14 10:42:50;;;;;;;41.85;25.13;;;;;;;;;;5025310;28;20212;-71
2021/12/14 10:43:12;;;;;;;44.88;25.13;;;;;;;;;;4999805;28;20529;-71
2021/12/14 10:45:41;;;;;;;43.08;25.55;;;;;;;;;;5008659;28;20178;-71
2021/12/14 10:48:06;;;;;;;44.28;25.52;;;;;;;;;;5004167;28;20564;-73
2021/12/14 10:50:33;;;;;;;49.67;27.90;;;;;;;;;;5016554;28;20266;-71
2021/12/14 10:53:01;;;;;;;46.38;26.27;;;;;;;;;;5003142;28;20186;-71
2021/12/14 10:55:35;;;;;;;44.88;27.35;;;;;;;;;;5021390;28;20213;-71
2021/12/14 10:58:02;;;;;;;45.65;27.77;;;;;;;;;;4998617;28;20193;-71
2021/12/14 11:00:34;;;;;;;46.22;26.23;;;;;;;;;;5009486;28;20280;-71
2021/12/14 11:03:10;;;;;;;50.25;28.75;;;;;;;;;;5000828;28;20197;-71
2021/12/14 11:05:38;;;;;;;46.30;27.30;;;;;;;;;;5003009;28;20194;-71
2021/12/14 11:08:06;;;;;;;47.92;28.38;;;;;;;;;;5001665;28;20205;-71
2021/12/14 11:10:36;;;;;;;46.28;27.77;;;;;;;;;;5010035;28;20282;-71
2021/12/14 11:13:13;;;;;;;46.83;27.02;;;;;;;;;;5002367;28;20182;-71
2021/12/14 11:15:49;;;;;;;48.15;27.65;;;;;;;;;;5013406;28;20191;-71
2021/12/14 11:18:22;;;;;;;49.88;28.17;;;;;;;;;;5007966;28;20191;-71
2021/12/14 11:20:52;;;;;;;51.92;27.55;;;;;;;;;;5007693;28;20240;-71
2021/12/14 11:23:32;;;;;;;51.70;28.02;;;;;;;;;;5004592;28;20238;-71
2021/12/14 11:26:04;;;;;;;47.42;27.88;;;;;;;;;;5007099;28;20203;-71
2021/12/14 11:28:33;;;;;;;50.63;27.13;;;;;;;;;;5000341;28;20199;-71
2021/12/14 11:31:11;;;;;;;50.22;27.95;;;;;;;;;;5008069;28;20336;-71
2021/12/14 11:33:44;;;;;;;48.20;27.90;;;;;;;;;;5010489;28;20190;-71
2021/12/14 11:36:20;;;;;;;50.97;29.92;;;;;;;;;;5005431;28;20205;-71
2021/12/14 11:38:55;;;;;;;54.35;28.98;;;;;;;;;;5003534;28;20207;-71
2021/12/14 11:41:24;;;;;;;51.33;28.95;;;;;;;;;;5008436;28;20202;-71
2021/12/14 11:43:57;;;;;;;52.70;28.95;;;;;;;;;;5003755;28;21248;-71
2021/12/14 11:46:23;;;;;;;51.10;30.13;;;;;;;;;;5006529;28;20196;-71
2021/12/14 11:48:49;;;;;;;52.88;29.80;;;;;;;;;;5002368;28;20661;-71
2021/12/14 11:51:14;;;;;;;50.13;28.02;;;;;;;;;;5011336;28;20179;-71
2021/12/14 11:53:52;;;;;;;53.25;29.05;;;;;;;;;;5004817;28;20193;-71
2021/12/14 11:56:19;;;;;;;51.25;29.55;;;;;;;;;;5002085;28;20578;-71
2021/12/14 11:58:54;;;;;;;50.22;28.40;;;;;;;;;;5012188;28;20531;-72
2021/12/14 12:01:30;;;;;;;52.20;30.88;;;;;;;;;;5002919;28;20241;-71
2021/12/14 12:04:03;;;;;;;52.17;29.70;;;;;;;;;;5003950;28;20182;-71
2021/12/14 12:09:28;;;;;;;56.58;30.17;;;;;;;;;;5000993;28;20697;-71
2021/12/14 12:09:48;;;;;;;57.65;30.25;;;;;;;;;;5009297;28;20186;-71
2021/12/14 12:12:33;;;;;;;54.00;30.73;;;;;;;;;;5007717;28;20245;-71
2021/12/14 12:15:02;;;;;;;56.78;32.03;;;;;;;;;;5019363;28;20179;-71
2021/12/14 12:17:43;;;;;;;55.45;31.52;;;;;;;;;;5005290;28;20512;-72
2021/12/14 12:20:08;;;;;;;59.35;31.45;;;;;;;;;;5006445;28;20218;-71
2021/12/14 12:22:40;;;;;;;61.17;32.53;;;;;;;;;;5011895;28;20189;-71
2021/12/14 12:25:16;;;;;;;61.53;32.00;;;;;;;;;;5003605;28;20222;-71
2021/12/14 12:27:42;;;;;;;60.70;32.80;;;;;;;;;;4998527;28;20638;-71
2021/12/14 12:30:28;;;;;;;63.28;34.67;;;;;;;;;;5014962;28;20194;-71
2021/12/14 12:32:55;;;;;;;62.97;33.35;;;;;;;;;;5001654;28;20186;-71
2021/12/14 12:35:34;;;;;;;62.80;33.35;;;;;;;;;;5013808;28;20678;-71
2021/12/14 12:38:33;;;;;;;65.13;34.03;;;;;;;;;;5000127;28;20661;-71
2021/12/14 12:41:07;;;;;;;69.20;34.35;;;;;;;;;;5005998;28;20186;-71
2021/12/14 12:43:38;;;;;;;67.85;34.33;;;;;;;;;;5010048;28;20286;-71
2021/12/14 12:46:06;;;;;;;67.85;34.85;;;;;;;;;;5008046;28;20245;-71
2021/12/14 12:49:05;;;;;;;69.07;35.10;;;;;;;;;;5007248;28;20191;-71
2021/12/14 12:51:40;;;;;;;69.20;35.53;;;;;;;;;;5008956;28;20254;-72
2021/12/14 12:54:20;;;;;;;69.20;35.58;;;;;;;;;;5000838;28;20212;-71
2021/12/14 12:56:51;;;;;;;76.30;36.80;;;;;;;;;;5010312;28;20559;-71
2021/12/14 12:59:42;;;;;;;74.80;36.67;;;;;;;;;;4998687;28;20448;-71
2021/12/14 13:02:29;;;;;;;75.95;38.60;;;;;;;;;;5009443;28;20189;-71
2021/12/14 13:05:01;;;;;;;78.28;36.97;;;;;;;;;;4312279;28;10000820;-71
2021/12/14 13:07:34;;;;;;;76.93;36.80;;;;;;;;;;5004828;28;20669;-71
2021/12/14 13:10:27;;;;;;;79.75;36.97;;;;;;;;;;4997608;28;20193;-71
2021/12/14 13:13:05;;;;;;;75.85;36.45;;;;;;;;;;5005257;28;20690;-71
2021/12/14 13:16:11;;;;;;;86.05;38.08;;;;;;;;;;5005058;28;20623;-71
2021/12/14 13:18:59;;;;;;;80.25;38.90;;;;;;;;;;4971646;28;20684;-71
2021/12/14 13:22:02;;;;;;;87.05;38.30;;;;;;;;;;5004879;28;20230;-71
2021/12/14 13:24:47;;;;;;;84.78;39.38;;;;;;;;;;4975848;28;20206;-71
2021/12/14 13:27:22;;;;;;;86.33;37.93;;;;;;;;;;5004807;28;20298;-71
2021/12/14 13:29:59;;;;;;;89.80;39.57;;;;;;;;;;5000933;28;20573;-71
2021/12/14 13:32:30;;;;;;;88.50;39.03;;;;;;;;;;4998843;28;20229;-71
2021/12/14 13:35:05;;;;;;;91.20;40.23;;;;;;;;;;4997940;28;20727;-71
2021/12/14 13:37:37;;;;;;;89.25;39.20;;;;;;;;;;5002609;28;20261;-71
2021/12/14 13:40:43;;;;;;;99.57;41.57;;;;;;;;;;4995387;28;20220;-71
2021/12/14 13:43:11;;;;;;;98.60;39.25;;;;;;;;;;5008372;28;20202;-71
2021/12/14 13:45:50;;;;;;;94.55;40.20;;;;;;;;;;4999407;28;20543;-72
2021/12/14 13:48:21;;;;;;;90.13;40.00;;;;;;;;;;5002611;28;20525;-71
2021/12/14 13:50:51;;;;;;;94.27;40.63;;;;;;;;;;4996853;28;20261;-72
2021/12/14 13:53:17;;;;;;;87.17;40.23;;;;;;;;;;5008213;28;20273;-72
2021/12/14 13:55:46;;;;;;;90.30;40.72;;;;;;;;;;4996177;28;20544;-71
2021/12/14 13:58:19;;;;;;;94.47;40.78;;;;;;;;;;4993395;28;20542;-71
2021/12/14 14:00:55;;;;;;;89.43;40.03;;;;;;;;;;4994062;28;20201;-71
2021/12/14 14:03:27;;;;;;;96.60;41.03;;;;;;;;;;5002071;28;20190;-71
2021/12/14 14:05:53;;;;;;;93.57;40.13;;;;;;;;;;4994245;28;20202;-71
2021/12/14 14:08:23;;;;;;;94.55;41.90;;;;;;;;;;5012350;28;20218;-71
2021/12/14 14:10:50;;;;;;;95.60;40.73;;;;;;;;;;4999550;28;20195;-71
2021/12/14 14:13:23;;;;;;;98.45;41.72;;;;;;;;;;5001922;28;20196;-71
2021/12/14 14:15:52;;;;;;;96.78;41.42;;;;;;;;;;5010047;28;20197;-71
2021/12/14 14:18:24;;;;;;;95.80;42.35;;;;;;;;;;4998978;28;20655;-71
2021/12/14 14:20:51;;;;;;;104.70;42.15;;;;;;;;;;5002075;28;20265;-71
2021/12/14 14:23:24;;;;;;;98.15;43.15;;;;;;;;;;4996837;28;20182;-71
2021/12/14 14:26:00;;;;;;;102.88;42.20;;;;;;;;;;5005183;28;20209;-71
2021/12/14 14:28:49;;;;;;;99.68;41.97;;;;;;;;;;4989572;28;20209;-71
2021/12/14 14:31:35;;;;;;;101.82;41.38;;;;;;;;;;4999023;28;20712;-71
2021/12/14 14:34:01;;;;;;;102.18;42.58;;;;;;;;;;4993617;28;20288;-71
2021/12/14 14:36:29;;;;;;;107.15;43.28;;;;;;;;;;5007450;28;20190;-71
2021/12/14 14:39:13;;;;;;;106.70;44.07;;;;;;;;;;4998435;28;20678;-71
2021/12/14 14:41:42;;;;;;;104.70;42.43;;;;;;;;;;5001236;28;20191;-71
2021/12/14 14:44:25;;;;;;;105.43;44.70;;;;;;;;;;4996498;28;20198;-71
2021/12/14 14:46:58;;;;;;;99.72;41.42;;;;;;;;;;5003813;28;20585;-71
2021/12/14 14:49:32;;;;;;;106.53;43.67;;;;;;;;;;4996836;28;20339;-71
2021/12/14 14:52:04;;;;;;;106.50;42.37;;;;;;;;;;5007767;28;20721;-70
2021/12/14 14:54:32;;;;;;;102.13;42.27;;;;;;;;;;5002462;28;20565;-74
2021/12/14 14:57:10;;;;;;;107.80;43.03;;;;;;;;;;5005125;28;20498;-70
2021/12/14 14:59:38;;;;;;;100.33;41.73;;;;;;;;;;4999395;28;20213;-70
2021/12/14 15:02:05;;;;;;;100.22;42.65;;;;;;;;;;5004377;28;20320;-70
2021/12/14 15:05:10;;;;;;;97.65;41.42;;;;;;;;;;5000929;28;20256;-70
2021/12/14 15:07:48;;;;;;;98.67;40.67;;;;;;;;;;5002737;28;20185;-70
2021/12/14 15:10:16;;;;;;;103.77;41.37;;;;;;;;;;4991971;28;20519;-71
2021/12/14 15:12:42;;;;;;;102.78;41.10;;;;;;;;;;5013545;28;20198;-71
2021/12/14 15:15:14;;;;;;;97.35;41.63;;;;;;;;;;5000515;28;20222;-70
2021/12/14 15:17:45;;;;;;;97.87;39.33;;;;;;;;;;5014188;28;20202;-71